Leona Valley, California
Current Conditions -  °F | °C
As of 4:07 PM on Friday 21 Nov 2014 (Local Time) from KSDB Reporting Station
Haze Haze  
Wind Chill: 35°   Ceiling: 100
Heat Index: 44°   Visibility: 0.25mi
Dew Point: 39°   Wind: 24mph
Humidity: 82%   Direction: 350°N
Pressure: 30.07"   Gusts: 31mph
Location:  34.6849°N, 118.558°W
Report Text: KSDB 220007Z AUTO 35021G27KT 1/4SM HZ VV001 07/04 A3007 RMK AO2 PK WND 35027/0003 T00670039
Loading
Personal Weather Stations






























Interactive Weather Map New forecast layout! Learn more

10-Day Weather Forecast

Advertisements
Track Severe Weather on mobile